Time;durP1;ratioP1;P1;durP2;ratioP2;P2;SDS_P1;SDS_P2;PMS_P1;PMS_P2;Temp;Humidity;BMP_temperature;BMP_pressure;BME280_temperature;BME280_humidity;BME280_pressure;Samples;Min_cycle;Max_cycle;Signal;HPM_P1;HPM_P2
2021/10/01 00:02:14;;;;;;;2.97;1.10;;;;;;;17.95;58.83;101764.13;4976718;28;20054;-67
2021/10/01 00:04:39;;;;;;;3.30;1.40;;;;;;;17.92;58.93;101758.16;4979312;28;20286;-67
2021/10/01 00:07:05;;;;;;;5.68;1.77;;;;;;;18.00;58.60;101753.28;4979166;28;20059;-68
2021/10/01 00:09:31;;;;;;;6.88;1.40;;;;;;;17.94;58.63;101738.59;4977263;28;20266;-67
2021/10/01 00:11:56;;;;;;;2.60;1.45;;;;;;;17.94;58.84;101748.34;4979740;28;20234;-68
2021/10/01 00:14:23;;;;;;;4.50;1.38;;;;;;;17.88;58.98;101748.69;4979150;28;20027;-68
2021/10/01 00:16:48;;;;;;;1.83;1.00;;;;;;;17.92;58.89;101742.25;4979272;28;20077;-68
2021/10/01 00:19:14;;;;;;;9.45;1.52;;;;;;;17.93;59.04;101746.63;4979161;28;20205;-67
2021/10/01 00:21:40;;;;;;;7.00;1.00;;;;;;;17.86;58.97;101751.41;4978823;28;20043;-69
2021/10/01 00:24:08;;;;;;;2.85;1.02;;;;;;;17.87;59.11;101739.03;4982896;28;20282;-68
2021/10/01 00:26:35;;;;;;;7.20;1.75;;;;;;;17.94;58.84;101721.84;4982616;28;20058;-68
2021/10/01 00:29:00;;;;;;;2.75;1.30;;;;;;;17.84;59.00;101727.66;4982914;28;20088;-68
2021/10/01 00:31:26;;;;;;;4.80;1.58;;;;;;;17.88;59.07;101733.63;4982531;28;20046;-68
2021/10/01 00:33:51;;;;;;;4.93;1.83;;;;;;;17.81;59.16;101721.66;4983306;28;20038;-68
2021/10/01 00:36:16;;;;;;;3.70;1.10;;;;;;;17.84;58.89;101729.41;4981977;28;20046;-68
2021/10/01 00:38:42;;;;;;;6.28;1.55;;;;;;;17.86;58.98;101724.91;4982960;28;20084;-68
2021/10/01 00:41:07;;;;;;;5.03;1.40;;;;;;;17.79;59.33;101729.69;4982804;28;20057;-68
2021/10/01 00:43:33;;;;;;;2.05;1.08;;;;;;;17.78;59.43;101717.38;4982094;28;20133;-68
2021/10/01 00:45:58;;;;;;;4.43;1.00;;;;;;;17.80;59.35;101725.25;4983185;28;20160;-68
2021/10/01 00:48:23;;;;;;;5.05;1.48;;;;;;;17.74;59.39;101717.66;4981827;28;20377;-68
2021/10/01 00:50:49;;;;;;;3.78;1.25;;;;;;;17.79;59.46;101716.44;4981390;28;20045;-68
2021/10/01 00:53:14;;;;;;;3.30;1.50;;;;;;;17.77;59.57;101715.69;4982021;28;20356;-68
2021/10/01 00:55:40;;;;;;;3.95;1.40;;;;;;;17.69;59.52;101714.41;4982649;28;20046;-68
2021/10/01 00:58:06;;;;;;;4.40;1.42;;;;;;;17.69;59.45;101709.13;4982664;28;20050;-68
2021/10/01 01:00:31;;;;;;;5.45;1.42;;;;;;;17.67;59.82;101709.19;4981782;28;20293;-68
2021/10/01 01:02:57;;;;;;;4.50;1.30;;;;;;;17.65;59.67;101711.09;4978512;28;20046;-68
2021/10/01 01:05:34;;;;;;;3.28;1.17;;;;;;;17.67;59.95;101703.06;4981158;28;20042;-68
2021/10/01 01:08:06;;;;;;;2.83;0.82;;;;;;;17.60;59.75;101695.44;4964890;28;20054;-68
2021/10/01 01:10:55;;;;;;;6.10;1.33;;;;;;;17.59;60.08;101698.16;4980059;28;20077;-68
2021/10/01 01:13:40;;;;;;;5.45;1.33;;;;;;;17.57;60.14;101682.38;4978707;28;20046;-67
2021/10/01 01:16:09;;;;;;;4.93;1.27;;;;;;;17.61;60.09;101685.72;4982425;28;20094;-68
2021/10/01 01:18:37;;;;;;;2.38;1.45;;;;;;;17.61;60.03;101688.38;4964355;28;20047;-68
2021/10/01 01:21:02;;;;;;;2.72;1.13;;;;;;;17.56;60.48;101682.47;4981462;28;20254;-68
2021/10/01 01:23:49;;;;;;;2.35;1.20;;;;;;;17.62;60.07;101690.91;4970648;28;20042;-68
2021/10/01 01:26:39;;;;;;;3.83;1.20;;;;;;;17.61;60.13;101683.06;4981586;28;20078;-68
2021/10/01 01:29:23;;;;;;;3.00;1.25;;;;;;;17.60;59.94;101690.13;4964771;28;20317;-67
2021/10/01 01:31:54;;;;;;;4.95;1.02;;;;;;;17.62;60.29;101679.47;4981901;28;20314;-69
2021/10/01 01:34:30;;;;;;;2.83;1.20;;;;;;;17.56;60.43;101677.19;4974020;28;20050;-67
2021/10/01 01:36:58;;;;;;;2.80;1.80;;;;;;;17.55;60.52;101675.44;4981690;28;20073;-68
2021/10/01 01:39:24;;;;;;;4.40;1.30;;;;;;;17.53;60.40;101664.09;4981226;28;20375;-68
2021/10/01 01:41:49;;;;;;;4.35;1.30;;;;;;;17.51;60.71;101673.94;4964481;28;20397;-68
2021/10/01 01:44:15;;;;;;;3.22;1.05;;;;;;;17.61;60.21;101657.44;4980842;28;20037;-68
2021/10/01 01:46:41;;;;;;;3.95;1.35;;;;;;;17.56;60.14;101654.19;4964599;28;20026;-68
2021/10/01 01:49:07;;;;;;;5.35;1.30;;;;;;;17.53;60.39;101651.69;4979496;28;20027;-68
2021/10/01 01:51:33;;;;;;;3.63;1.30;;;;;;;17.52;60.52;101647.38;4979818;28;20234;-67
2021/10/01 01:53:58;;;;;;;2.83;1.02;;;;;;;17.54;60.37;101645.47;4979329;28;20089;-67
2021/10/01 01:56:23;;;;;;;2.35;0.98;;;;;;;17.49;60.54;101644.88;4980795;28;20039;-68
2021/10/01 01:58:49;;;;;;;6.00;1.10;;;;;;;17.56;60.28;101645.41;4963862;28;20043;-69
2021/10/01 02:01:14;;;;;;;1.65;0.90;;;;;;;17.52;60.38;101641.19;4964050;28;20038;-67
2021/10/01 02:03:40;;;;;;;1.80;1.05;;;;;;;17.50;60.31;101636.00;4963768;28;20026;-67
2021/10/01 02:06:05;;;;;;;3.97;1.00;;;;;;;17.42;60.47;101631.13;4963927;28;20030;-67
2021/10/01 02:08:30;;;;;;;4.05;1.05;;;;;;;17.46;60.84;101630.03;4980508;28;20101;-66
2021/10/01 02:10:56;;;;;;;1.67;1.02;;;;;;;17.46;60.71;101622.09;4980586;28;20081;-67
2021/10/01 02:13:21;;;;;;;3.47;0.95;;;;;;;17.45;60.39;101623.03;4980689;28;20322;-67
2021/10/01 02:15:47;;;;;;;3.90;1.27;;;;;;;17.46;60.80;101626.50;4963519;28;20042;-68
2021/10/01 02:18:12;;;;;;;4.90;1.08;;;;;;;17.42;60.91;101615.25;4980438;28;20106;-67
2021/10/01 02:20:38;;;;;;;1.95;1.20;;;;;;;17.44;60.49;101613.38;4964134;28;20043;-67
2021/10/01 02:23:04;;;;;;;1.20;1.10;;;;;;;17.36;60.88;101604.16;4981399;28;20347;-68
2021/10/01 02:28:36;;;;;;;3.20;1.20;;;;;;;17.40;60.56;101593.31;4939733;29;20067;-68
2021/10/01 02:31:02;;;;;;;2.75;1.27;;;;;;;17.40;60.58;101593.31;4939663;29;20331;-67
2021/10/01 02:33:34;;;;;;;1.38;1.02;;;;;;;17.34;60.74;101585.72;4954822;28;20078;-68
2021/10/01 02:35:59;;;;;;;2.88;1.08;;;;;;;17.31;61.16;101574.44;4980740;28;20098;-68
2021/10/01 02:38:25;;;;;;;1.45;0.90;;;;;;;17.38;60.75;101573.16;4962995;28;20254;-67
2021/10/01 02:40:50;;;;;;;2.08;1.10;;;;;;;17.37;60.68;101563.50;4980234;28;20318;-68
2021/10/01 02:43:16;;;;;;;1.75;0.90;;;;;;;17.30;60.86;101565.66;4979984;28;20417;-67
2021/10/01 02:45:41;;;;;;;3.88;1.48;;;;;;;17.32;60.73;101560.25;4980082;28;20043;-63
2021/10/01 02:48:06;;;;;;;3.13;1.00;;;;;;;17.32;61.02;101560.25;4980797;28;20056;-63
2021/10/01 02:50:32;;;;;;;3.58;0.80;;;;;;;17.28;61.03;101549.00;4962138;28;20030;-63
2021/10/01 02:53:17;;;;;;;3.97;1.17;;;;;;;17.30;61.13;101536.53;4979979;28;20086;-64
2021/10/01 02:56:03;;;;;;;2.80;0.90;;;;;;;17.24;61.19;101534.25;4964217;28;20050;-63
2021/10/01 02:58:44;;;;;;;1.80;1.00;;;;;;;17.31;60.94;101530.28;4963804;28;20247;-64
2021/10/01 03:01:10;;;;;;;1.73;0.95;;;;;;;17.26;61.00;101519.13;4979846;28;20061;-66
2021/10/01 03:03:45;;;;;;;1.25;0.80;;;;;;;17.21;61.34;101516.75;4963256;28;20351;-66
2021/10/01 03:06:11;;;;;;;2.13;1.20;;;;;;;17.23;61.00;101500.78;4962450;28;20106;-66
2021/10/01 03:08:36;;;;;;;2.28;0.70;;;;;;;17.21;60.99;101514.09;4979108;28;20050;-65
2021/10/01 03:11:02;;;;;;;1.85;0.95;;;;;;;17.23;61.38;101501.63;4963006;28;20211;-66
2021/10/01 03:13:28;;;;;;;2.33;1.13;;;;;;;17.24;61.20;101507.75;4978174;28;20030;-66
2021/10/01 03:15:57;;;;;;;2.30;1.08;;;;;;;17.19;61.12;101512.47;4962493;28;20038;-66
2021/10/01 03:18:22;;;;;;;2.05;0.90;;;;;;;17.16;61.63;101516.16;4946806;28;20038;-65
2021/10/01 03:20:48;;;;;;;2.42;0.85;;;;;;;17.17;61.58;101509.06;4979778;28;20038;-65
2021/10/01 03:23:14;;;;;;;2.72;1.17;;;;;;;17.21;61.44;101500.88;4978299;28;20043;-66
2021/10/01 03:25:40;;;;;;;1.38;0.73;;;;;;;17.25;61.35;101502.38;4979655;28;20027;-66
2021/10/01 03:28:06;;;;;;;2.85;1.23;;;;;;;17.21;61.11;101506.16;4979840;28;20226;-66
2021/10/01 03:30:31;;;;;;;2.28;1.00;;;;;;;17.10;61.50;101510.34;4978206;28;20226;-66
2021/10/01 03:32:56;;;;;;;2.50;1.23;;;;;;;17.13;61.66;101491.66;4960492;28;20042;-66
2021/10/01 03:35:22;;;;;;;1.73;0.77;;;;;;;17.16;61.65;101502.09;4962148;28;20093;-65
2021/10/01 03:37:47;;;;;;;2.42;0.90;;;;;;;17.21;61.26;101489.44;4962467;28;20081;-66
2021/10/01 03:40:13;;;;;;;1.42;0.95;;;;;;;17.16;61.29;101496.78;4961971;28;20034;-65
2021/10/01 03:42:39;;;;;;;3.75;1.08;;;;;;;17.15;61.33;101485.31;4979878;28;20114;-65
2021/10/01 03:45:06;;;;;;;1.70;0.93;;;;;;;17.04;61.62;101479.81;4962955;28;20031;-66
2021/10/01 03:47:31;;;;;;;1.38;0.98;;;;;;;17.02;61.65;101471.97;4978888;28;20082;-66
2021/10/01 03:49:56;;;;;;;3.10;1.15;;;;;;;17.04;61.80;101475.38;4980128;28;20323;-66
2021/10/01 03:52:22;;;;;;;2.45;0.95;;;;;;;17.02;62.01;101463.19;4979414;28;20106;-67
2021/10/01 03:54:50;;;;;;;6.22;0.93;;;;;;;17.03;61.71;101462.25;4979658;28;20074;-65
2021/10/01 03:57:15;;;;;;;1.73;1.00;;;;;;;17.02;62.19;101461.38;4963845;28;20289;-66
2021/10/01 03:59:41;;;;;;;1.70;0.55;;;;;;;17.09;61.93;101448.66;4982385;28;20325;-65
2021/10/01 04:02:06;;;;;;;1.50;0.70;;;;;;;17.05;61.77;101455.06;4982870;28;20041;-66
2021/10/01 04:04:32;;;;;;;2.90;0.88;;;;;;;17.04;61.85;101461.28;4982900;28;20388;-66
2021/10/01 04:06:57;;;;;;;1.95;0.82;;;;;;;16.98;61.95;101459.00;4982692;28;20105;-66
2021/10/01 04:09:23;;;;;;;3.33;1.10;;;;;;;17.06;61.96;101444.41;4982396;28;20034;-66
2021/10/01 04:11:48;;;;;;;2.92;0.95;;;;;;;16.98;62.01;101451.06;4983219;28;20031;-66
2021/10/01 04:14:14;;;;;;;1.77;0.73;;;;;;;17.02;62.06;101453.44;4982476;28;20045;-65
2021/10/01 04:16:39;;;;;;;0.95;0.77;;;;;;;17.01;62.13;101449.09;4982772;28;20050;-66
2021/10/01 04:19:05;;;;;;;2.15;0.90;;;;;;;17.00;62.14;101450.03;4983206;28;20066;-65
2021/10/01 04:21:30;;;;;;;2.17;0.80;;;;;;;17.02;61.90;101445.50;4982192;28;20065;-65
2021/10/01 04:23:55;;;;;;;2.42;1.17;;;;;;;17.01;62.17;101459.69;4983090;28;20031;-66
2021/10/01 04:26:21;;;;;;;2.75;0.70;;;;;;;16.96;62.19;101466.19;4981986;28;20108;-66
2021/10/01 04:28:46;;;;;;;1.33;0.70;;;;;;;17.02;61.80;101464.00;4982894;28;20041;-66
2021/10/01 04:31:12;;;;;;;2.40;0.90;;;;;;;17.03;61.98;101451.66;4964862;28;20027;-65
2021/10/01 04:33:40;;;;;;;2.78;1.00;;;;;;;17.02;61.94;101450.78;4980992;28;20074;-66
2021/10/01 04:36:06;;;;;;;3.50;0.93;;;;;;;16.96;62.17;101443.22;4982579;28;20249;-66
2021/10/01 04:38:31;;;;;;;2.80;1.02;;;;;;;16.98;61.98;101448.44;4981960;28;20042;-66
2021/10/01 04:40:57;;;;;;;2.38;0.95;;;;;;;16.95;62.15;101451.25;4982095;28;20038;-65
2021/10/01 04:43:22;;;;;;;1.75;0.93;;;;;;;16.98;62.18;101443.13;4981926;28;20261;-66
2021/10/01 04:45:48;;;;;;;2.15;1.23;;;;;;;16.91;62.53;101449.72;4982448;28;20050;-66
2021/10/01 04:48:13;;;;;;;3.45;0.90;;;;;;;16.94;62.22;101446.91;4981861;28;20030;-66
2021/10/01 04:50:39;;;;;;;2.45;0.70;;;;;;;16.93;62.33;101448.69;4982500;28;20297;-66
2021/10/01 04:53:04;;;;;;;2.53;0.65;;;;;;;16.93;62.31;101438.09;4981971;28;20038;-66
2021/10/01 04:55:32;;;;;;;2.33;0.93;;;;;;;16.91;62.63;101447.06;4981994;28;20102;-66
2021/10/01 04:57:57;;;;;;;12.57;1.17;;;;;;;16.89;62.48;101447.16;4981569;28;20034;-66
2021/10/01 05:00:23;;;;;;;2.33;0.90;;;;;;;16.89;62.43;101457.75;4979660;28;20038;-65
2021/10/01 05:02:48;;;;;;;2.13;0.88;;;;;;;16.93;62.04;101447.84;4970569;28;20102;-65
2021/10/01 05:05:14;;;;;;;1.35;0.80;;;;;;;16.91;62.30;101444.44;4981543;28;20354;-65
2021/10/01 05:07:39;;;;;;;7.40;1.02;;;;;;;17.04;63.02;101443.59;4978364;28;20105;-65
2021/10/01 05:10:05;;;;;;;2.38;0.90;;;;;;;17.01;62.51;101449.09;4981615;28;20101;-66
2021/10/01 05:12:30;;;;;;;2.17;0.60;;;;;;;17.03;62.56;101447.22;4980123;28;20038;-66
2021/10/01 05:14:56;;;;;;;3.70;1.48;;;;;;;17.04;62.32;101442.75;4980314;28;20353;-65
2021/10/01 05:17:23;;;;;;;2.90;1.33;;;;;;;16.98;62.24;101440.50;4979567;28;20042;-65
2021/10/01 05:19:49;;;;;;;8.27;1.25;;;;;;;17.00;62.58;101441.25;4981690;28;20261;-65
2021/10/01 05:22:15;;;;;;;3.35;0.80;;;;;;;17.00;62.34;101438.59;4981010;28;20034;-64
2021/10/01 05:24:40;;;;;;;3.53;1.05;;;;;;;17.00;62.02;101450.03;4948546;28;20093;-65
2021/10/01 05:27:06;;;;;;;4.93;1.27;;;;;;;16.99;62.16;101436.88;4981537;28;20042;-65
2021/10/01 05:29:31;;;;;;;2.45;1.08;;;;;;;17.00;62.24;101430.66;4981012;28;20073;-64
2021/10/01 05:31:57;;;;;;;1.40;0.68;;;;;;;16.94;62.38;101433.69;4979230;28;20038;-65
2021/10/01 05:34:22;;;;;;;2.95;1.10;;;;;;;16.94;62.11;101431.03;4980079;28;20038;-65
2021/10/01 05:36:47;;;;;;;3.22;0.90;;;;;;;16.97;62.27;101417.59;4980954;28;20039;-64
2021/10/01 05:39:13;;;;;;;2.03;0.88;;;;;;;16.95;61.99;101415.03;4980625;28;20050;-64
2021/10/01 05:41:38;;;;;;;4.15;1.45;;;;;;;16.98;62.13;101424.63;4981461;28;20121;-64
2021/10/01 05:44:04;;;;;;;2.88;0.80;;;;;;;16.94;62.08;101417.81;4980753;28;20199;-65
2021/10/01 05:46:29;;;;;;;1.85;0.73;;;;;;;16.95;62.13;101417.69;4976189;28;20288;-65
2021/10/01 05:49:00;;;;;;;5.78;1.00;;;;;;;16.96;62.12;101426.50;4979636;28;20026;-66
2021/10/01 05:51:28;;;;;;;3.42;0.98;;;;;;;16.96;62.51;101419.41;4979360;28;20445;-65
2021/10/01 05:56:34;;;;;;;1.55;0.90;;;;;;;17.03;62.16;101409.31;4979650;28;20133;-65
2021/10/01 05:58:59;;;;;;;3.10;0.98;;;;;;;17.05;62.29;101416.22;4980343;28;20089;-65
2021/10/01 06:01:24;;;;;;;5.28;0.85;;;;;;;17.07;62.19;101406.38;4963083;28;20234;-65
2021/10/01 06:03:51;;;;;;;2.17;0.90;;;;;;;17.09;62.42;101422.19;4980426;28;20035;-65
2021/10/01 06:06:17;;;;;;;4.25;0.90;;;;;;;17.11;62.13;101422.09;4979835;28;20034;-66
2021/10/01 06:08:43;;;;;;;4.95;1.05;;;;;;;17.15;61.98;101415.69;4942771;28;20349;-66
2021/10/01 06:11:08;;;;;;;3.28;1.08;;;;;;;17.11;62.07;101408.88;4980320;28;20045;-65
2021/10/01 06:13:36;;;;;;;2.38;0.85;;;;;;;17.18;62.00;101404.91;4980208;28;20034;-65
2021/10/01 06:16:01;;;;;;;3.40;1.10;;;;;;;17.18;62.12;101402.28;4975826;28;20042;-65
2021/10/01 06:18:27;;;;;;;7.13;1.00;;;;;;;17.25;61.80;101411.56;4979556;28;20199;-66
2021/10/01 06:20:52;;;;;;;4.70;1.30;;;;;;;17.26;61.77;101408.81;4979465;28;20273;-65
2021/10/01 06:23:18;;;;;;;3.13;1.23;;;;;;;17.25;61.92;101403.59;4979216;28;20062;-65
2021/10/01 06:25:45;;;;;;;1.25;0.73;;;;;;;17.36;61.39;101406.47;4980149;28;20038;-65
2021/10/01 06:28:11;;;;;;;3.75;1.08;;;;;;;17.30;61.57;101404.19;4967721;28;20242;-65
2021/10/01 06:30:36;;;;;;;6.30;1.48;;;;;;;17.30;61.46;101398.91;4969418;28;20039;-69
2021/10/01 06:33:02;;;;;;;9.93;2.17;;;;;;;17.30;61.65;101393.59;4978262;28;20046;-65
2021/10/01 06:35:27;;;;;;;8.20;2.00;;;;;;;17.30;61.36;101390.06;4979137;28;20254;-65
2021/10/01 06:37:53;;;;;;;12.48;2.22;;;;;;;17.36;61.58;101395.03;4985474;28;20372;-65
2021/10/01 06:40:18;;;;;;;13.40;2.90;;;;;;;17.42;61.30;101397.28;4986539;28;20052;-65
2021/10/01 06:42:48;;;;;;;17.15;3.30;;;;;;;17.46;61.04;101404.09;4979150;28;20084;-65
2021/10/01 06:45:18;;;;;;;13.32;2.70;;;;;;;17.49;61.06;101403.06;4977612;28;20057;-65
2021/10/01 07:23:00;;;;;;;16.75;3.13;;;;;;;18.47;60.14;101402.22;4970812;28;20158;-66
2021/10/01 07:36:44;;;;;;;14.40;2.55;;;;;;;18.79;60.12;101388.63;4977580;28;20220;-66
2021/10/01 08:19:54;;;;;;;15.27;2.17;;;;;;;19.68;58.19;101381.72;4959742;29;20037;-66
2021/10/01 08:22:19;;;;;;;18.92;3.03;;;;;;;19.71;58.51;101379.69;4959045;28;20038;-66
2021/10/01 08:24:45;;;;;;;11.45;2.47;;;;;;;19.81;58.02;101373.75;4961941;28;20047;-67
2021/10/01 08:27:10;;;;;;;20.35;3.05;;;;;;;19.73;58.53;101377.81;4961874;28;20042;-68
2021/10/01 08:29:36;;;;;;;7.80;1.92;;;;;;;19.64;58.68;101374.94;4956185;28;20318;-67
2021/10/01 08:32:02;;;;;;;19.88;3.33;;;;;;;19.73;58.74;101374.31;4959928;28;20122;-68
2021/10/01 08:34:29;;;;;;;9.27;2.00;;;;;;;19.70;58.65;101378.00;4961910;28;20042;-68
2021/10/01 08:36:54;;;;;;;9.65;2.33;;;;;;;19.71;58.85;101382.34;4963292;28;20349;-66
2021/10/01 08:39:21;;;;;;;9.38;2.15;;;;;;;19.81;58.61;101374.63;4962510;29;20046;-68
2021/10/01 08:41:46;;;;;;;17.27;3.33;;;;;;;19.99;58.29;101367.13;4962708;28;20317;-67
2021/10/01 08:44:12;;;;;;;18.52;2.63;;;;;;;20.09;57.93;101375.28;4963201;28;20054;-67
2021/10/01 08:46:37;;;;;;;18.90;3.58;;;;;;;20.11;57.91;101374.22;4960180;28;20045;-66
2021/10/01 08:49:04;;;;;;;16.45;2.58;;;;;;;20.25;57.59;101357.25;4962465;28;20043;-67
2021/10/01 08:51:29;;;;;;;22.52;3.83;;;;;;;20.39;57.19;101358.91;4962006;28;20039;-66
2021/10/01 08:53:55;;;;;;;15.38;2.83;;;;;;;20.57;56.71;101353.16;4960799;29;20504;-66
2021/10/01 08:56:21;;;;;;;16.70;2.65;;;;;;;20.74;56.16;101358.13;4960218;28;20259;-67
2021/10/01 08:58:46;;;;;;;19.42;2.95;;;;;;;21.31;54.74;101364.41;4972767;28;20334;-67
2021/10/01 09:01:12;;;;;;;33.13;3.58;;;;;;;21.66;53.74;101363.47;4958450;29;20554;-66
2021/10/01 09:03:40;;;;;;;21.48;3.55;;;;;;;21.72;53.24;101364.81;4956857;29;20050;-67
2021/10/01 09:06:06;;;;;;;21.13;3.85;;;;;;;21.88;53.20;101364.44;4960956;28;20031;-68
2021/10/01 09:08:34;;;;;;;21.17;3.15;;;;;;;21.61;53.58;101361.19;4977736;28;20047;-68
2021/10/01 09:11:01;;;;;;;18.30;3.50;;;;;;;21.53;53.83;101362.75;4981702;28;20073;-67
2021/10/01 09:13:26;;;;;;;23.83;3.83;;;;;;;21.83;53.19;101362.16;4980690;28;20309;-66
2021/10/01 09:16:08;;;;;;;25.83;3.10;;;;;;;22.08;52.53;101361.00;4981151;28;20042;-67
2021/10/01 09:18:35;;;;;;;22.70;3.33;;;;;;;21.97;52.67;101355.69;4962900;28;20177;-68
2021/10/01 09:21:11;;;;;;;25.83;3.67;;;;;;;21.92;52.82;101357.88;4979938;28;20276;-67
2021/10/01 09:23:46;;;;;;;19.45;2.75;;;;;;;21.77;53.00;101352.78;4980509;28;20050;-67
2021/10/01 09:26:16;;;;;;;37.88;4.07;;;;;;;22.15;52.26;101359.53;4981421;28;20375;-66
2021/10/01 09:28:55;;;;;;;25.38;4.20;;;;;;;21.97;52.81;101343.19;4963121;28;21165;-67
2021/10/01 09:31:29;;;;;;;25.48;3.47;;;;;;;21.82;53.19;101352.44;4980448;28;20053;-66
2021/10/01 09:33:55;;;;;;;24.30;3.35;;;;;;;21.51;53.41;101344.22;4978722;28;20049;-66
2021/10/01 09:36:20;;;;;;;19.45;3.38;;;;;;;21.32;53.75;101339.47;4979038;28;20102;-66
2021/10/01 09:38:45;;;;;;;20.33;3.60;;;;;;;21.16;54.14;101342.47;4979475;28;20322;-65
2021/10/01 09:41:25;;;;;;;23.50;3.78;;;;;;;21.13;54.15;101336.53;4979928;28;20104;-66
2021/10/01 09:44:11;;;;;;;10.02;2.17;;;;;;;21.00;54.64;101339.31;4979096;28;20035;-66
2021/10/01 09:46:39;;;;;;;17.50;3.20;;;;;;;20.97;54.83;101336.88;4979572;28;20082;-66
2021/10/01 09:49:05;;;;;;;10.48;1.90;;;;;;;20.87;55.02;101342.91;4974838;28;20046;-66
2021/10/01 09:51:30;;;;;;;14.55;2.30;;;;;;;20.86;55.28;101343.00;4977498;28;20043;-67
2021/10/01 09:53:56;;;;;;;24.20;3.50;;;;;;;20.81;55.46;101335.41;4977455;28;20086;-66
2021/10/01 09:56:22;;;;;;;13.63;2.88;;;;;;;20.73;55.60;101336.94;4980313;28;20042;-67
2021/10/01 09:59:10;;;;;;;13.35;2.83;;;;;;;20.71;56.08;101329.91;4977947;28;20317;-67
2021/10/01 10:02:13;;;;;;;18.10;2.38;;;;;;;20.73;56.24;101340.44;4975188;28;20488;-67
2021/10/01 10:04:46;;;;;;;23.17;3.85;;;;;;;20.66;56.43;101342.69;4959842;28;20058;-67
2021/10/01 10:07:14;;;;;;;16.58;2.60;;;;;;;20.61;56.72;101333.38;4978118;28;20097;-68
2021/10/01 10:09:42;;;;;;;13.48;3.30;;;;;;;20.60;56.53;101337.81;4961802;28;20031;-67
2021/10/01 10:12:09;;;;;;;;;;;;;;;20.63;56.72;101334.09;4977976;28;20057;-66
2021/10/01 10:14:35;;;;;;;31.95;3.28;;;;;;;20.66;56.64;101337.38;4976624;28;19961;-66
2021/10/01 10:17:18;;;;;;;25.65;3.83;;;;;;;20.66;56.56;101333.88;5115323;27;20607;-65
2021/10/01 10:19:44;;;;;;;39.47;4.18;;;;;;;20.65;56.79;101338.38;5083185;28;20036;-65
2021/10/01 10:22:09;;;;;;;30.80;3.80;;;;;;;20.67;56.61;101331.09;5111881;28;20227;-65
2021/10/01 10:24:35;;;;;;;26.65;3.53;;;;;;;20.67;56.69;101325.78;5102052;28;20040;-67
2021/10/01 10:27:00;;;;;;;29.85;3.92;;;;;;;20.62;56.95;101329.75;5086859;28;20325;-67
2021/10/01 10:29:26;;;;;;;31.95;3.75;;;;;;;20.58;57.27;101330.94;5081911;28;20087;-68
2021/10/01 10:31:51;;;;;;;53.70;5.05;;;;;;;20.51;57.49;101331.38;5063631;28;20040;-67
2021/10/01 10:34:25;;;;;;;30.38;4.07;;;;;;;20.47;57.01;101334.41;5102344;28;20320;-66
2021/10/01 10:36:59;;;;;;;7.45;1.55;;;;;;;20.44;56.78;101329.28;5088874;28;20232;-67
2021/10/01 10:39:29;;;;;;;14.02;2.20;;;;;;;20.39;56.63;101331.44;5097595;28;20028;-67
2021/10/01 10:42:00;;;;;;;8.50;1.88;;;;;;;20.31;55.97;101327.53;5097314;28;20036;-67
2021/10/01 10:44:38;;;;;;;3.85;1.30;;;;;;;20.30;55.92;101319.66;5101427;28;20062;-68
2021/10/01 10:47:04;;;;;;;7.75;2.50;;;;;;;20.30;55.66;101320.53;5097849;28;20059;-68
2021/10/01 10:49:29;;;;;;;25.58;2.28;;;;;;;20.32;55.91;101318.63;5077188;28;20072;-67
2021/10/01 10:52:01;;;;;;;11.27;2.22;;;;;;;20.33;55.53;101309.66;5089452;28;20199;-67
2021/10/01 10:54:38;;;;;;;31.50;4.68;;;;;;;20.29;55.79;101302.88;5096057;28;20043;-68
2021/10/01 10:57:21;;;;;;;21.30;2.97;;;;;;;20.33;55.54;101303.50;5093206;28;20134;-68
2021/10/01 10:59:47;;;;;;;26.00;2.47;;;;;;;20.32;55.56;101304.47;5088049;28;20028;-67
2021/10/01 11:02:25;;;;;;;45.78;3.20;;;;;;;20.32;56.06;101304.47;5085869;28;20073;-68
2021/10/01 11:04:51;;;;;;;49.20;4.70;;;;;;;20.31;56.36;101297.44;5096844;28;20095;-66
2021/10/01 11:07:58;;;;;;;19.63;2.55;;;;;;;20.32;56.62;101294.66;5088562;28;20044;-66
2021/10/01 11:10:46;;;;;;;21.52;2.45;;;;;;;20.38;56.69;101297.84;5073046;28;20120;-66
2021/10/01 11:13:23;;;;;;;46.08;4.85;;;;;;;20.39;56.71;101305.72;5096084;28;20040;-66
2021/10/01 11:16:07;;;;;;;20.55;2.50;;;;;;;20.37;56.57;101302.28;5078793;28;20384;-68
2021/10/01 11:18:36;;;;;;;23.85;2.67;;;;;;;20.33;56.95;101299.00;5100771;28;20043;-67
2021/10/01 11:24:04;;;;;;;18.25;2.88;;;;;;;20.25;57.43;101312.06;5100683;28;20027;-68
2021/10/01 11:26:37;;;;;;;18.98;2.80;;;;;;;20.25;57.60;101311.22;5094672;28;20051;-68
2021/10/01 11:29:04;;;;;;;23.67;3.05;;;;;;;20.23;57.73;101298.03;5067029;28;20100;-67
2021/10/01 11:31:37;;;;;;;22.33;2.58;;;;;;;20.31;57.83;101289.47;5088370;28;20029;-67
2021/10/01 11:34:02;;;;;;;12.52;2.53;;;;;;;20.37;58.00;101294.31;5089072;28;20108;-67
2021/10/01 11:36:28;;;;;;;25.98;3.90;;;;;;;20.40;57.89;101282.63;5081304;28;20041;-67
2021/10/01 11:39:04;;;;;;;28.63;3.05;;;;;;;20.41;58.04;101276.31;5077894;28;20036;-68
2021/10/01 11:41:30;;;;;;;22.17;3.20;;;;;;;20.40;58.21;101275.47;5083506;28;20117;-68
2021/10/01 11:43:56;;;;;;;21.05;3.08;;;;;;;20.41;58.28;101273.66;5079508;28;20048;-68
2021/10/01 11:46:51;;;;;;;20.90;2.78;;;;;;;20.41;58.15;101271.88;5079361;28;20025;-68
2021/10/01 11:49:31;;;;;;;15.70;1.98;;;;;;;20.40;58.37;101272.81;5074662;28;20076;-67
2021/10/01 11:52:04;;;;;;;20.25;3.00;;;;;;;20.44;58.05;101273.44;5058649;28;20236;-69
2021/10/01 11:54:30;;;;;;;13.57;2.45;;;;;;;20.43;58.19;101272.59;5049206;28;20225;-68
2021/10/01 11:57:00;;;;;;;31.63;3.75;;;;;;;20.43;58.36;101271.72;5067853;28;20051;-68
2021/10/01 11:59:46;;;;;;;15.35;2.33;;;;;;;20.46;58.45;101275.00;5063321;28;20048;-68
2021/10/01 12:02:11;;;;;;;25.73;3.30;;;;;;;20.61;57.97;101274.84;5071972;28;20037;-67
2021/10/01 12:04:37;;;;;;;14.02;2.60;;;;;;;20.52;58.20;101269.22;5063315;28;20248;-67
2021/10/01 12:07:04;;;;;;;19.48;2.63;;;;;;;20.56;58.22;101261.03;5065275;28;20111;-68
2021/10/01 12:09:29;;;;;;;18.33;2.40;;;;;;;20.67;57.89;101255.75;5073257;28;20078;-67
2021/10/01 12:11:55;;;;;;;21.63;3.42;;;;;;;20.80;57.48;101261.81;5072076;28;20384;-68
2021/10/01 12:14:20;;;;;;;17.08;2.38;;;;;;;20.85;57.19;101259.66;5072022;28;20047;-67
2021/10/01 12:16:59;;;;;;;27.27;3.35;;;;;;;20.92;57.32;101259.16;5065309;28;20082;-67
2021/10/01 12:19:25;;;;;;;;;;;;;;;20.86;57.46;101263.16;5075180;28;20205;-68
2021/10/01 12:22:09;;;;;;;19.38;2.92;;;;;;;20.94;57.06;101254.56;5066490;28;19924;-67
2021/10/01 12:24:49;;;;;;;9.80;1.67;;;;;;;20.96;56.90;101261.47;5060851;28;20100;-68
2021/10/01 12:27:15;;;;;;;21.42;3.38;;;;;;;21.04;56.60;101251.06;5076335;28;20036;-67
2021/10/01 12:29:46;;;;;;;11.27;1.88;;;;;;;20.99;56.99;101260.38;5068513;28;20040;-67
2021/10/01 12:32:11;;;;;;;17.88;2.53;;;;;;;20.85;57.54;101264.97;5057720;28;20044;-67
2021/10/01 12:34:41;;;;;;;17.42;2.80;;;;;;;20.76;58.17;101254.22;5061167;28;20083;-68
2021/10/01 12:37:09;;;;;;;13.55;2.90;;;;;;;20.73;57.93;101259.75;5064326;28;20034;-69
2021/10/01 12:39:36;;;;;;;4.90;1.93;;;;;;;20.60;56.53;101268.63;5054369;28;20647;-68
2021/10/01 12:42:06;;;;;;;4.35;1.58;;;;;;;20.45;56.01;101259.19;5053093;28;20045;-67
2021/10/01 12:44:33;;;;;;;3.50;1.27;;;;;;;20.38;56.13;101261.44;5070669;28;20078;-68
2021/10/01 12:47:08;;;;;;;5.07;2.00;;;;;;;20.35;56.43;101252.84;5063464;28;20045;-67
2021/10/01 12:49:34;;;;;;;16.17;2.03;;;;;;;20.38;56.31;101266.75;5086673;28;20040;-67
2021/10/01 12:52:04;;;;;;;11.13;1.55;;;;;;;20.40;56.64;101269.31;5067993;28;20389;-67
2021/10/01 12:54:45;;;;;;;5.35;1.23;;;;;;;20.39;57.14;101273.78;5067206;28;20053;-67
2021/10/01 12:57:20;;;;;;;8.13;1.60;;;;;;;20.39;57.40;101271.13;5065081;28;20048;-68
2021/10/01 12:59:58;;;;;;;3.00;1.15;;;;;;;20.39;57.83;101272.91;5071643;28;20029;-67
2021/10/01 13:02:41;;;;;;;6.63;1.70;;;;;;;20.40;57.85;101270.16;5071588;28;20051;-68
2021/10/01 13:05:17;;;;;;;6.47;1.50;;;;;;;20.40;58.04;101275.47;5065354;28;20048;-68